createdAt,value
2023-04-09T00:01:30.077Z,27.61
2023-04-09T00:06:32.875Z,27.67
2023-04-09T00:11:36.315Z,27.67
2023-04-09T00:16:40.683Z,27.63
2023-04-09T00:21:43.688Z,27.71
2023-04-09T00:26:46.853Z,27.58
2023-04-09T00:31:51.119Z,27.89
2023-04-09T00:36:53.917Z,27.52
2023-04-09T00:41:58.480Z,27.60
2023-04-09T00:47:02.662Z,27.69
2023-04-09T00:52:05.858Z,27.55
2023-04-09T00:57:08.727Z,27.59
2023-04-09T01:02:13.027Z,27.57
2023-04-09T01:07:21.957Z,27.60
2023-04-09T01:12:34.378Z,27.53
2023-04-09T01:17:43.423Z,27.53
2023-04-09T01:22:52.372Z,27.64
2023-04-09T01:28:26.307Z,27.67
2023-04-09T01:33:30.771Z,27.63
2023-04-09T01:38:34.604Z,27.59
2023-04-09T01:43:38.089Z,27.72
2023-04-09T01:48:42.362Z,27.59
2023-04-09T01:53:45.482Z,27.62
2023-04-09T01:58:48.313Z,27.58
2023-04-09T02:03:56.720Z,27.70
2023-04-09T02:09:02.479Z,27.50
2023-04-09T02:14:05.895Z,27.64
2023-04-09T02:19:10.149Z,27.61
2023-04-09T02:24:13.147Z,27.47
2023-04-09T02:29:15.942Z,27.47
2023-04-09T02:34:20.094Z,27.63
2023-04-09T02:39:22.960Z,27.34
2023-04-09T02:44:26.084Z,27.50
2023-04-09T02:49:30.273Z,27.53
2023-04-09T02:54:33.121Z,27.57
2023-04-09T02:59:36.182Z,27.29
2023-04-09T03:04:40.535Z,27.48
2023-04-09T03:09:43.402Z,27.25
2023-04-09T03:14:46.190Z,27.61
2023-04-09T03:19:50.696Z,27.26
2023-04-09T03:24:53.485Z,27.31
2023-04-09T03:29:56.855Z,27.39
2023-04-09T03:35:01.022Z,27.28
2023-04-09T03:40:04.293Z,27.29
2023-04-09T03:45:08.084Z,27.38
2023-04-09T03:50:12.547Z,27.13
2023-04-09T03:55:15.424Z,27.20
2023-04-09T04:00:18.508Z,27.23
2023-04-09T04:05:26.161Z,27.25
2023-04-09T04:10:29.026Z,27.11
2023-04-09T04:15:31.876Z,27.03
2023-04-09T04:20:36.302Z,27.30
2023-04-09T04:25:43.977Z,27.08
2023-04-09T04:30:46.881Z,27.16
2023-04-09T04:35:54.318Z,27.13
2023-04-09T04:40:57.320Z,27.08
2023-04-09T04:46:00.524Z,27.04
2023-04-09T04:51:04.957Z,26.80
2023-04-09T04:56:08.075Z,26.88
2023-04-09T05:01:11.013Z,27.05
2023-04-09T05:06:16.946Z,26.88
2023-04-09T05:11:19.728Z,26.86
2023-04-09T05:16:23.224Z,26.89
2023-04-09T05:21:27.564Z,26.71
2023-04-09T05:26:33.577Z,26.72
2023-04-09T05:31:36.564Z,26.83
2023-04-09T05:36:41.150Z,26.84
2023-04-09T05:41:44.879Z,26.74
2023-04-09T05:46:47.708Z,26.43
2023-04-09T05:51:52.393Z,26.67
2023-04-09T05:56:55.384Z,26.76
2023-04-09T06:01:58.193Z,26.48
2023-04-09T06:07:02.353Z,26.40
2023-04-09T06:12:05.287Z,26.57
2023-04-09T06:17:08.176Z,26.41
2023-04-09T06:22:12.351Z,26.46
2023-04-09T06:27:15.606Z,26.53
2023-04-09T06:32:18.438Z,26.38
2023-04-09T06:37:22.605Z,26.55
2023-04-09T06:42:26.684Z,26.57
2023-04-09T06:47:29.633Z,26.29
2023-04-09T06:52:33.866Z,26.37
2023-04-09T06:57:38.512Z,26.20
2023-04-09T07:02:41.628Z,26.43
2023-04-09T07:07:46.157Z,26.23
2023-04-09T07:12:49.061Z,26.28
2023-04-09T07:17:52.045Z,26.37
2023-04-09T07:22:56.475Z,26.56
2023-04-09T07:27:59.399Z,26.37
2023-04-09T07:33:02.219Z,26.46
2023-04-09T07:38:06.460Z,26.20
2023-04-09T07:43:09.295Z,26.35
2023-04-09T07:48:12.770Z,26.46
2023-04-09T07:53:16.964Z,26.48
2023-04-09T07:58:19.801Z,26.59
2023-04-09T08:03:22.748Z,26.56
2023-04-09T08:08:27.000Z,26.53
2023-04-09T08:13:29.849Z,26.46
2023-04-09T08:18:32.694Z,26.69
2023-04-09T08:23:37.694Z,26.60
2023-04-09T08:28:40.536Z,26.53
2023-04-09T08:33:43.412Z,26.56
2023-04-09T08:38:47.682Z,26.77
2023-04-09T08:43:57.861Z,26.89
2023-04-09T08:49:01.907Z,26.66
2023-04-09T08:54:06.500Z,26.82
2023-04-09T08:59:10.580Z,26.71
2023-04-09T09:04:13.484Z,26.66
2023-04-09T09:09:18.905Z,27.02
2023-04-09T09:14:21.806Z,27.04
2023-04-09T09:19:31.226Z,26.87
2023-04-09T09:24:35.578Z,26.97
2023-04-09T09:29:42.477Z,26.78
2023-04-09T09:34:58.960Z,27.00
2023-04-09T09:40:04.375Z,27.05
2023-04-09T09:45:19.315Z,26.94
2023-04-09T09:50:25.211Z,26.84
2023-04-09T09:55:32.215Z,26.97
2023-04-09T10:00:38.095Z,26.84
2023-04-09T10:05:41.935Z,27.06
2023-04-09T10:10:46.783Z,26.95
2023-04-09T10:15:50.063Z,27.09
2023-04-09T10:20:58.668Z,27.12
2023-04-09T10:26:03.017Z,27.09
2023-04-09T10:31:08.327Z,27.22
2023-04-09T10:36:13.245Z,27.10
2023-04-09T10:41:23.730Z,27.02
2023-04-09T10:46:28.246Z,27.31
2023-04-09T10:51:36.027Z,27.12
2023-04-09T10:56:40.257Z,27.17
2023-04-09T11:01:53.629Z,27.46
2023-04-09T11:06:57.341Z,27.16
2023-04-09T11:12:01.837Z,27.38
2023-04-09T11:17:04.738Z,27.42
2023-04-09T11:22:07.640Z,27.30
2023-04-09T11:27:11.822Z,27.27
2023-04-09T11:32:14.653Z,27.31
2023-04-09T11:37:17.821Z,27.18
2023-04-09T11:42:22.727Z,27.22
2023-04-09T11:47:26.227Z,27.37
2023-04-09T11:52:30.732Z,27.22
2023-04-09T11:57:46.600Z,27.33
2023-04-09T12:02:50.527Z,27.40
2023-04-09T12:07:56.795Z,27.31
2023-04-09T12:13:04.686Z,27.20
2023-04-09T12:18:09.820Z,27.25
2023-04-09T12:23:13.540Z,27.36
2023-04-09T12:28:18.960Z,27.47
2023-04-09T12:33:22.206Z,27.22
2023-04-09T12:38:25.013Z,27.26
2023-04-09T12:43:29.148Z,27.29
2023-04-09T12:48:32.103Z,27.29
2023-04-09T12:53:34.921Z,27.31
2023-04-09T12:58:39.802Z,27.29
2023-04-09T13:03:45.176Z,27.29
2023-04-09T13:08:48.204Z,27.34
2023-04-09T13:13:53.803Z,27.39
2023-04-09T13:18:57.299Z,27.37
2023-04-09T13:24:00.695Z,27.20
2023-04-09T13:29:04.928Z,27.43
2023-04-09T13:34:07.779Z,27.43
2023-04-09T13:39:10.993Z,27.38
2023-04-09T13:44:18.304Z,27.34
2023-04-09T13:49:21.323Z,27.28
2023-04-09T13:54:24.205Z,27.23
2023-04-09T13:59:28.436Z,27.27
2023-04-09T14:04:31.636Z,27.24
2023-04-09T14:09:34.482Z,27.32
2023-04-09T14:14:38.605Z,27.16
2023-04-09T14:19:41.582Z,27.08
2023-04-09T14:24:44.402Z,27.11
2023-04-09T14:29:49.038Z,26.96
2023-04-09T14:34:51.931Z,26.92
2023-04-09T14:39:54.800Z,22.97
2023-04-09T14:44:58.923Z,21.39
2023-04-09T14:50:01.860Z,20.48
2023-04-09T14:55:05.498Z,21.46
2023-04-09T15:00:11.396Z,24.48
2023-04-09T15:05:14.350Z,24.69
2023-04-09T15:10:17.207Z,25.30
2023-04-09T15:15:21.490Z,25.00
2023-04-09T15:20:24.635Z,24.89
2023-04-09T15:25:27.565Z,25.21
2023-04-09T15:30:31.800Z,25.02
2023-04-09T15:35:34.922Z,24.91
2023-04-09T15:40:37.720Z,24.31
2023-04-09T15:45:42.141Z,24.61
2023-04-09T15:50:45.014Z,24.04
2023-04-09T15:55:49.287Z,21.97
2023-04-09T16:00:53.493Z,21.17
2023-04-09T16:05:56.313Z,20.73
2023-04-09T16:10:59.113Z,20.88
2023-04-09T16:16:03.279Z,20.67
2023-04-09T16:21:06.753Z,20.90
2023-04-09T16:26:10.842Z,20.83
2023-04-09T16:31:15.528Z,21.88
2023-04-09T16:36:18.401Z,21.40
2023-04-09T16:41:21.409Z,21.47
2023-04-09T16:46:25.727Z,21.63
2023-04-09T16:51:28.657Z,22.88
2023-04-09T16:56:31.577Z,22.24
2023-04-09T17:01:36.041Z,22.59
2023-04-09T17:06:39.091Z,22.71
2023-04-09T17:11:42.281Z,22.26
2023-04-09T17:16:48.350Z,22.47
2023-04-09T17:21:51.215Z,23.25
2023-04-09T17:26:54.087Z,23.54
2023-04-09T17:31:58.844Z,24.41
2023-04-09T17:37:01.726Z,25.11
2023-04-09T17:42:04.803Z,25.30
2023-04-09T17:47:09.577Z,25.46
2023-04-09T17:52:13.186Z,26.15
2023-04-09T17:57:16.042Z,26.33
2023-04-09T18:02:21.552Z,26.35
2023-04-09T18:07:24.686Z,26.68
2023-04-09T18:12:27.597Z,26.63
2023-04-09T18:17:32.344Z,26.86
2023-04-09T18:22:35.439Z,26.82
2023-04-09T18:27:38.373Z,26.97
2023-04-09T18:32:43.489Z,27.02
2023-04-09T18:37:46.430Z,27.07
2023-04-09T18:42:51.737Z,27.23
2023-04-09T18:47:55.945Z,27.22
2023-04-09T18:52:58.820Z,27.28
2023-04-09T18:58:02.058Z,27.30
2023-04-09T19:03:06.687Z,27.33
2023-04-09T19:08:10.105Z,27.49
2023-04-09T19:13:12.909Z,27.46
2023-04-09T19:18:18.761Z,27.50
2023-04-09T19:23:21.651Z,27.54
2023-04-09T19:28:24.513Z,27.52
2023-04-09T19:33:28.659Z,27.70
2023-04-09T19:38:31.489Z,27.79
2023-04-09T19:43:34.341Z,27.74
2023-04-09T19:48:40.549Z,27.81
2023-04-09T19:53:45.086Z,27.95
2023-04-09T19:58:49.576Z,27.88
2023-04-09T20:03:53.891Z,28.09
2023-04-09T20:08:56.814Z,28.04
2023-04-09T20:14:00.121Z,28.12
2023-04-09T20:19:04.331Z,28.02
2023-04-09T20:24:08.144Z,28.17
2023-04-09T20:29:12.536Z,28.22
2023-04-09T20:34:16.782Z,28.19
2023-04-09T20:39:19.708Z,28.29
2023-04-09T20:44:22.540Z,28.29
2023-04-09T20:49:27.828Z,28.37
2023-04-09T20:54:30.808Z,28.44
2023-04-09T20:59:33.915Z,28.59
2023-04-09T21:04:38.143Z,28.53
2023-04-09T21:09:41.069Z,28.71
2023-04-09T21:14:44.082Z,28.74
2023-04-09T21:19:49.399Z,28.43
2023-04-09T21:24:52.631Z,28.65
2023-04-09T21:29:55.663Z,28.60
2023-04-09T21:34:59.845Z,28.59
2023-04-09T21:40:03.164Z,28.60
2023-04-09T21:45:06.860Z,28.79
2023-04-09T21:50:12.216Z,28.85
2023-04-09T21:55:15.381Z,28.70
2023-04-09T22:00:18.675Z,28.87
2023-04-09T22:05:23.235Z,28.88
2023-04-09T22:10:27.433Z,28.76
2023-04-09T22:15:30.304Z,28.98
2023-04-09T22:20:34.455Z,28.71
2023-04-09T22:25:37.514Z,28.87
2023-04-09T22:30:40.896Z,28.95
2023-04-09T22:35:45.954Z,28.89
2023-04-09T22:40:50.874Z,28.84
2023-04-09T22:45:54.504Z,28.99
2023-04-09T22:51:00.451Z,28.84
2023-04-09T22:56:03.530Z,28.86
2023-04-09T23:01:06.794Z,28.83
2023-04-09T23:06:11.137Z,28.86
2023-04-09T23:11:14.106Z,28.80
2023-04-09T23:16:16.959Z,28.89
2023-04-09T23:21:21.169Z,29.06
2023-04-09T23:26:24.081Z,28.82
2023-04-09T23:31:27.175Z,28.87
2023-04-09T23:36:31.602Z,29.03
2023-04-09T23:41:34.410Z,28.79
2023-04-09T23:46:37.281Z,28.97
2023-04-09T23:51:41.512Z,28.77
2023-04-09T23:56:44.360Z,28.91
